Terminal Aerodrome Forecast
Issued by NWS

Home | Current Version | Previous Version | Text Only | Print | Product List | Glossary Off
Versions: 1 2 3 4 5 6 7 8 9 10 11 12 13 14 15 16 17

090
FTUS43 KICT 050520
TAFSLN
TAF
KSLN 050520Z 0506/0606 19008KT P6SM SKC
     FM051400 18011KT P6SM SCT250
     FM051700 19018G26KT P6SM BKN250
     FM060000 17006KT P6SM BKN250=

USA.gov is the U.S. government's official web portal to all federal, state and local government web resources and services.